Time;durP1;ratioP1;P1;durP2;ratioP2;P2;SDS_P1;SDS_P2;PMS_P1;PMS_P2;Temp;Humidity;BMP_temperature;BMP_pressure;BME280_temperature;BME280_humidity;BME280_pressure;Samples;Min_cycle;Max_cycle;Signal;HPM_P1;HPM_P2
2022/06/16 00:01:07;;;;;;;2.72;2.53;;;23.00;65.40;;;;;;5032297;28;20655;-69
2022/06/16 00:03:33;;;;;;;3.13;2.92;;;23.10;65.40;;;;;;5007048;28;20553;-69
2022/06/16 00:05:58;;;;;;;3.20;2.90;;;23.00;65.30;;;;;;5014776;28;20265;-69
2022/06/16 00:08:24;;;;;;;3.15;2.90;;;23.00;65.40;;;;;;5031632;28;20211;-70
2022/06/16 00:13:39;;;;;;;4.03;3.30;;;23.00;65.40;;;;;;5015164;28;20215;-69
2022/06/16 00:16:07;;;;;;;3.95;3.03;;;23.00;66.10;;;;;;5014658;28;20169;-69
2022/06/16 00:18:33;;;;;;;3.03;2.83;;;23.00;65.40;;;;;;4998424;28;20196;-69
2022/06/16 00:20:59;;;;;;;2.72;2.55;;;23.00;65.50;;;;;;4997875;28;20195;-69
2022/06/16 00:23:25;;;;;;;3.08;2.60;;;23.10;65.50;;;;;;5030744;28;20215;-69
2022/06/16 00:25:51;;;;;;;3.10;2.80;;;23.00;65.40;;;;;;4997596;28;20188;-69
2022/06/16 00:28:17;;;;;;;2.90;2.70;;;23.00;65.40;;;;;;5014315;28;20242;-69
2022/06/16 00:30:42;;;;;;;3.25;2.95;;;23.00;65.40;;;;;;5029268;28;20251;-69
2022/06/16 00:33:09;;;;;;;2.65;2.55;;;23.00;65.40;;;;;;5003621;28;20208;-69
2022/06/16 00:35:35;;;;;;;3.00;2.75;;;23.00;65.40;;;;;;4994686;28;20189;-69
2022/06/16 00:38:01;;;;;;;3.17;2.97;;;23.00;65.40;;;;;;4994431;28;20653;-70
2022/06/16 00:40:27;;;;;;;3.13;2.83;;;23.00;65.40;;;;;;4995186;28;20248;-69
2022/06/16 00:42:53;;;;;;;2.90;2.70;;;23.00;65.40;;;;;;4994799;28;20691;-70
2022/06/16 00:45:58;;;;;;;2.95;2.75;;;23.00;65.30;;;;;;4994767;28;20691;-69
2022/06/16 00:48:52;;;;;;;3.60;3.10;;;23.00;65.30;;;;;;4998886;28;20279;-69
2022/06/16 00:51:24;;;;;;;2.95;2.65;;;23.00;65.40;;;;;;4995038;28;20173;-69
2022/06/16 00:53:55;;;;;;;2.80;2.60;;;23.00;65.40;;;;;;4994983;28;20215;-69
2022/06/16 00:56:21;;;;;;;3.38;3.13;;;23.00;65.40;;;;;;4994358;28;20185;-70
2022/06/16 00:58:57;;;;;;;2.78;2.58;;;23.00;65.30;;;;;;4994748;28;20211;-70
2022/06/16 01:01:25;;;;;;;3.20;2.28;;;23.00;65.30;;;;;;5001346;28;20219;-70
2022/06/16 01:06:37;;;;;;;2.83;2.63;;;23.00;65.40;;;;;;5013300;28;20192;-69
2022/06/16 01:09:16;;;;;;;3.05;2.75;;;23.00;65.40;;;;;;5013820;28;20212;-69
2022/06/16 01:14:54;;;;;;;2.88;2.67;;;23.00;65.40;;;;;;5013912;28;20684;-70
2022/06/16 01:18:16;;;;;;;2.83;2.63;;;23.00;65.40;;;;;;4997519;28;20215;-69
2022/06/16 01:21:03;;;;;;;3.33;3.10;;;22.90;65.20;;;;;;5014067;28;20199;-69
2022/06/16 01:24:14;;;;;;;3.08;2.88;;;23.00;65.40;;;;;;5013897;28;20173;-69
2022/06/16 01:27:24;;;;;;;2.90;2.70;;;23.00;65.30;;;;;;4996909;28;20176;-69
2022/06/16 01:30:05;;;;;;;3.08;2.88;;;22.90;65.20;;;;;;5030578;28;20215;-69
2022/06/16 01:32:56;;;;;;;3.00;2.80;;;22.90;65.20;;;;;;4997040;28;20237;-69
2022/06/16 01:36:05;;;;;;;2.80;2.60;;;22.90;65.20;;;;;;5007036;28;20173;-69
2022/06/16 01:39:10;;;;;;;2.92;2.70;;;23.00;65.30;;;;;;4983623;28;20205;-69
2022/06/16 01:41:51;;;;;;;3.30;2.67;;;22.90;65.20;;;;;;4977936;28;20272;-69
2022/06/16 01:45:02;;;;;;;3.05;2.78;;;22.90;65.10;;;;;;4992961;28;20177;-69
2022/06/16 01:47:31;;;;;;;2.97;2.72;;;22.90;65.20;;;;;;4976573;28;20193;-69
2022/06/16 01:50:09;;;;;;;2.60;2.40;;;22.90;65.20;;;;;;4992198;28;20217;-69
2022/06/16 01:52:49;;;;;;;2.83;2.63;;;22.90;65.20;;;;;;4976973;28;20188;-70
2022/06/16 01:55:23;;;;;;;2.80;2.60;;;22.90;65.20;;;;;;4993717;28;20271;-69
2022/06/16 01:58:00;;;;;;;2.22;2.13;;;22.90;65.10;;;;;;4992934;28;20185;-69
2022/06/16 02:00:27;;;;;;;3.00;2.80;;;22.90;65.10;;;;;;4993807;28;20210;-70
2022/06/16 02:03:12;;;;;;;3.17;2.97;;;22.90;65.20;;;;;;5004617;28;20280;-69
2022/06/16 02:06:12;;;;;;;3.58;3.33;;;22.90;65.20;;;;;;5013304;28;20183;-69
2022/06/16 02:08:46;;;;;;;3.00;2.80;;;22.90;65.20;;;;;;5030167;28;20726;-69
2022/06/16 02:11:30;;;;;;;3.03;2.83;;;22.90;65.20;;;;;;4997306;28;20226;-69
2022/06/16 02:14:26;;;;;;;2.88;2.53;;;22.90;65.10;;;;;;4997270;28;20271;-69
2022/06/16 02:16:59;;;;;;;2.72;2.53;;;22.90;65.10;;;;;;5013607;28;20183;-70
2022/06/16 02:19:29;;;;;;;3.63;3.33;;;22.90;65.20;;;;;;4997756;28;20204;-69
2022/06/16 02:21:55;;;;;;;3.65;3.30;;;22.90;65.20;;;;;;4996162;28;20180;-69
2022/06/16 02:24:26;;;;;;;3.47;3.28;;;22.90;65.20;;;;;;5012959;28;20198;-70
2022/06/16 02:26:56;;;;;;;3.05;2.85;;;22.90;65.20;;;;;;5012798;28;20218;-69
2022/06/16 02:29:38;;;;;;;2.83;2.63;;;22.90;65.20;;;;;;5012834;28;20212;-70
2022/06/16 02:32:32;;;;;;;2.70;2.50;;;22.90;65.20;;;;;;5004675;28;20255;-69
2022/06/16 02:35:21;;;;;;;2.90;2.70;;;22.90;65.20;;;;;;4977765;28;20212;-69
2022/06/16 02:38:09;;;;;;;3.40;3.20;;;22.90;65.10;;;;;;4992881;28;20185;-69
2022/06/16 02:41:07;;;;;;;3.65;3.30;;;22.90;65.10;;;;;;4958367;28;20192;-70
2022/06/16 02:43:47;;;;;;;3.40;3.10;;;22.90;65.20;;;;;;4958143;28;20182;-69
2022/06/16 02:46:33;;;;;;;2.75;2.55;;;22.90;65.20;;;;;;4974414;28;20182;-69
2022/06/16 02:49:26;;;;;;;2.85;2.65;;;22.90;65.10;;;;;;4974101;28;20744;-70
2022/06/16 02:52:10;;;;;;;3.08;2.83;;;22.90;65.20;;;;;;4957802;28;20249;-70
2022/06/16 02:55:03;;;;;;;3.42;3.22;;;22.90;65.10;;;;;;4974021;28;20307;-69
2022/06/16 02:57:54;;;;;;;2.83;2.60;;;22.90;65.20;;;;;;4983612;28;20192;-70
2022/06/16 03:00:43;;;;;;;3.13;2.78;;;22.80;65.00;;;;;;5000614;28;20192;-69
2022/06/16 03:03:32;;;;;;;3.10;2.90;;;22.90;65.10;;;;;;4991766;28;20270;-69
2022/06/16 03:06:03;;;;;;;3.50;3.22;;;22.90;65.10;;;;;;4999256;28;20220;-69
2022/06/16 03:08:34;;;;;;;3.30;3.10;;;22.90;65.10;;;;;;5031983;28;20234;-69
2022/06/16 03:11:02;;;;;;;3.63;3.33;;;22.90;65.20;;;;;;5015912;28;20176;-69
2022/06/16 03:13:32;;;;;;;3.15;2.95;;;22.90;65.20;;;;;;5000066;28;20216;-69
2022/06/16 03:16:01;;;;;;;3.10;2.90;;;22.90;65.10;;;;;;5015615;28;20195;-69
2022/06/16 03:18:30;;;;;;;2.88;2.67;;;22.90;65.10;;;;;;5015200;28;20204;-69
2022/06/16 03:20:56;;;;;;;3.10;2.80;;;22.80;65.00;;;;;;5032325;28;20180;-69
2022/06/16 03:23:22;;;;;;;3.00;2.80;;;22.90;65.10;;;;;;5015588;28;20187;-69
2022/06/16 03:25:49;;;;;;;2.92;2.72;;;22.80;65.00;;;;;;5032793;28;20184;-69
2022/06/16 03:28:16;;;;;;;3.05;2.85;;;22.80;65.00;;;;;;5016873;28;20211;-69
2022/06/16 03:30:43;;;;;;;2.70;2.53;;;22.80;65.00;;;;;;5018047;28;20192;-69
2022/06/16 03:33:13;;;;;;;3.35;3.15;;;22.80;65.00;;;;;;5007280;28;20220;-69
2022/06/16 03:35:41;;;;;;;3.00;2.80;;;22.80;65.00;;;;;;4999147;28;20664;-69
2022/06/16 03:38:21;;;;;;;3.03;2.83;;;22.80;65.00;;;;;;4998586;28;20718;-69
2022/06/16 03:40:47;;;;;;;2.92;2.72;;;22.80;65.00;;;;;;5032763;28;20187;-69
2022/06/16 03:43:13;;;;;;;3.53;3.22;;;22.80;65.00;;;;;;5000152;28;20234;-70
2022/06/16 03:45:39;;;;;;;2.95;2.75;;;22.80;65.00;;;;;;4999753;28;20714;-69
2022/06/16 03:48:06;;;;;;;3.03;2.83;;;22.80;65.00;;;;;;5017208;28;20202;-69
2022/06/16 03:50:35;;;;;;;2.95;2.75;;;22.80;65.00;;;;;;5015714;28;20216;-69
2022/06/16 03:53:05;;;;;;;3.22;2.92;;;22.80;65.00;;;;;;5015030;28;20216;-69
2022/06/16 03:55:33;;;;;;;3.00;2.80;;;22.80;65.00;;;;;;4999586;28;20176;-69
2022/06/16 03:57:59;;;;;;;3.10;2.90;;;22.80;65.00;;;;;;4999027;28;20224;-70
2022/06/16 04:00:28;;;;;;;3.08;2.88;;;22.80;65.00;;;;;;5015415;28;20241;-69
2022/06/16 04:05:48;;;;;;;2.92;2.72;;;22.80;65.00;;;;;;5002425;28;20211;-69
2022/06/16 04:08:16;;;;;;;2.90;2.70;;;22.80;65.00;;;;;;5031045;28;20215;-69
2022/06/16 04:10:43;;;;;;;2.60;2.40;;;22.80;65.00;;;;;;5031559;28;20659;-69
2022/06/16 04:13:10;;;;;;;2.67;2.47;;;22.80;65.00;;;;;;5014557;28;20207;-69
2022/06/16 04:15:36;;;;;;;2.65;2.45;;;22.90;65.10;;;;;;5031743;28;20192;-69
2022/06/16 04:18:04;;;;;;;3.00;2.72;;;22.80;65.00;;;;;;5030953;28;20180;-69
2022/06/16 04:20:34;;;;;;;2.50;2.40;;;22.80;65.00;;;;;;4998811;28;20187;-69
2022/06/16 04:23:14;;;;;;;2.97;2.78;;;22.80;65.00;;;;;;5014794;28;20184;-69
2022/06/16 04:25:42;;;;;;;2.65;2.55;;;22.80;65.10;;;;;;5030247;28;20202;-69
2022/06/16 04:28:21;;;;;;;2.65;2.45;;;22.80;65.10;;;;;;5013275;28;20179;-69
2022/06/16 04:30:49;;;;;;;2.47;2.35;;;22.80;65.10;;;;;;5013776;28;20210;-69
2022/06/16 04:33:20;;;;;;;2.85;2.65;;;22.80;65.10;;;;;;5005767;28;20219;-69
2022/06/16 04:35:47;;;;;;;2.92;2.72;;;22.80;65.10;;;;;;4998032;28;20251;-69
2022/06/16 04:38:15;;;;;;;2.47;2.38;;;22.80;65.10;;;;;;4997584;28;20210;-70
2022/06/16 04:40:42;;;;;;;2.95;2.75;;;22.80;65.20;;;;;;5014303;28;20738;-69
2022/06/16 04:43:15;;;;;;;2.92;2.72;;;22.80;65.20;;;;;;4998512;28;20188;-69
2022/06/16 04:45:42;;;;;;;2.47;2.35;;;22.80;65.20;;;;;;5030204;28;20188;-69
2022/06/16 04:48:09;;;;;;;2.40;2.30;;;22.80;65.10;;;;;;5030664;28;20180;-69
2022/06/16 04:50:38;;;;;;;2.70;2.53;;;22.80;65.10;;;;;;4998567;28;20210;-69
2022/06/16 04:53:05;;;;;;;3.08;2.88;;;22.80;65.20;;;;;;4997537;28;20262;-70
2022/06/16 04:55:56;;;;;;;3.88;2.92;;;22.80;65.20;;;;;;5014122;28;20647;-70
2022/06/16 04:58:29;;;;;;;3.05;2.85;;;22.80;65.20;;;;;;5014012;28;20195;-70
2022/06/16 05:01:07;;;;;;;3.03;2.83;;;22.80;65.20;;;;;;5007952;28;20187;-70
2022/06/16 05:03:56;;;;;;;2.75;2.55;;;22.80;65.20;;;;;;4993982;28;20232;-69
2022/06/16 05:06:41;;;;;;;2.85;2.65;;;22.80;65.20;;;;;;4993729;28;20196;-69
2022/06/16 05:09:15;;;;;;;3.00;2.70;;;22.80;65.20;;;;;;4994528;28;20208;-69
2022/06/16 05:11:54;;;;;;;2.90;2.70;;;22.80;65.30;;;;;;4994170;28;20233;-70
2022/06/16 05:14:26;;;;;;;3.22;2.92;;;22.80;65.30;;;;;;4994384;28;20209;-69
2022/06/16 05:17:05;;;;;;;3.33;3.13;;;22.80;65.30;;;;;;4994811;28;20184;-70
2022/06/16 05:19:43;;;;;;;2.60;2.40;;;22.80;65.30;;;;;;4979118;28;20201;-69
2022/06/16 05:22:24;;;;;;;3.03;2.83;;;22.80;65.40;;;;;;4993421;28;20609;-69
2022/06/16 05:25:12;;;;;;;2.50;2.40;;;22.80;65.40;;;;;;4993635;28;20595;-70
2022/06/16 05:27:56;;;;;;;3.00;2.78;;;22.80;65.40;;;;;;4993923;28;20239;-69
2022/06/16 05:30:38;;;;;;;2.90;2.70;;;22.80;65.40;;;;;;4994563;28;20189;-69
2022/06/16 05:33:20;;;;;;;3.03;2.83;;;22.80;65.40;;;;;;5006185;28;20212;-69
2022/06/16 05:36:02;;;;;;;3.10;2.90;;;22.80;65.50;;;;;;4998269;28;20227;-70
2022/06/16 05:38:57;;;;;;;2.88;2.67;;;22.80;65.50;;;;;;4978411;28;20205;-70
2022/06/16 05:41:29;;;;;;;2.80;2.60;;;22.80;65.50;;;;;;5009944;28;20177;-70
2022/06/16 05:44:09;;;;;;;2.38;2.28;;;22.80;65.50;;;;;;4994036;28;20188;-69
2022/06/16 05:46:53;;;;;;;2.67;2.47;;;22.80;65.60;;;;;;4992366;28;20192;-69
2022/06/16 05:49:24;;;;;;;3.38;3.13;;;22.80;65.60;;;;;;4992859;28;20212;-69
2022/06/16 05:51:54;;;;;;;3.40;3.10;;;22.80;65.70;;;;;;4992867;28;20196;-69
2022/06/16 05:54:29;;;;;;;2.50;2.40;;;22.80;65.70;;;;;;4993592;28;20284;-69
2022/06/16 05:56:55;;;;;;;3.42;3.15;;;22.80;65.70;;;;;;4992362;28;20220;-69
2022/06/16 05:59:21;;;;;;;3.63;3.33;;;22.80;65.80;;;;;;4992983;28;20204;-69
2022/06/16 06:01:50;;;;;;;2.80;2.60;;;22.80;65.90;;;;;;4978434;28;20192;-69
2022/06/16 06:04:16;;;;;;;3.00;2.70;;;22.80;66.00;;;;;;5027808;28;20180;-70
2022/06/16 06:06:44;;;;;;;2.72;2.60;;;22.80;65.90;;;;;;4995549;28;20279;-69
2022/06/16 06:17:32;;;;;;;2.80;2.60;;;22.90;66.60;;;;;;4991428;28;20173;-70
2022/06/16 06:19:58;;;;;;;2.63;2.42;;;22.90;66.10;;;;;;4991758;28;20216;-69
2022/06/16 06:22:27;;;;;;;2.80;2.60;;;22.90;66.20;;;;;;4991558;28;20188;-69
2022/06/16 06:25:06;;;;;;;2.72;2.53;;;22.90;65.70;;;;;;4986430;28;20184;-70
2022/06/16 06:27:35;;;;;;;2.80;2.60;;;22.90;65.70;;;;;;4968721;28;20180;-69
2022/06/16 06:30:29;;;;;;;2.83;2.60;;;22.90;66.00;;;;;;4965217;28;20260;-69
2022/06/16 06:33:01;;;;;;;2.50;2.30;;;22.90;66.10;;;;;;4975770;28;20207;-69
2022/06/16 06:35:28;;;;;;;2.60;2.40;;;22.90;66.00;;;;;;5011134;28;20183;-69
2022/06/16 06:37:57;;;;;;;2.70;2.50;;;22.90;66.00;;;;;;4984261;28;20181;-69
2022/06/16 06:40:28;;;;;;;2.10;2.00;;;23.00;66.40;;;;;;4976074;28;20209;-69
2022/06/16 06:42:54;;;;;;;2.63;2.53;;;22.90;66.20;;;;;;4976417;28;20182;-69
2022/06/16 06:45:22;;;;;;;2.90;2.70;;;23.00;66.10;;;;;;4959849;28;20174;-69
2022/06/16 06:47:49;;;;;;;2.85;2.60;;;22.90;66.10;;;;;;4994355;28;20176;-69
2022/06/16 06:50:33;;;;;;;2.70;2.50;;;22.90;66.30;;;;;;4995085;28;20320;-69
2022/06/16 06:52:58;;;;;;;3.03;2.83;;;22.90;66.50;;;;;;4994830;28;20459;-69
2022/06/16 06:55:25;;;;;;;3.10;2.70;;;23.00;66.50;;;;;;4993229;28;20282;-69
2022/06/16 06:57:53;;;;;;;3.17;2.97;;;22.90;66.30;;;;;;4994165;28;20188;-69
2022/06/16 07:00:23;;;;;;;3.13;2.88;;;23.00;66.40;;;;;;4992080;28;20208;-69
2022/06/16 07:02:49;;;;;;;3.58;2.80;;;23.00;66.50;;;;;;4986716;28;20188;-69
2022/06/16 07:05:15;;;;;;;3.00;2.70;;;23.00;66.50;;;;;;5014388;28;20572;-69
2022/06/16 07:07:41;;;;;;;3.85;2.90;;;23.00;66.50;;;;;;4994940;28;20181;-69
2022/06/16 07:10:08;;;;;;;4.07;2.78;;;23.00;66.60;;;;;;4978184;28;20268;-69
2022/06/16 07:12:35;;;;;;;4.03;3.08;;;23.00;66.50;;;;;;4978397;28;20607;-69
2022/06/16 07:15:03;;;;;;;3.00;2.80;;;23.00;66.60;;;;;;4978469;28;20527;-69
2022/06/16 07:17:29;;;;;;;3.15;2.85;;;23.00;66.70;;;;;;4998383;28;20188;-69
2022/06/16 07:19:54;;;;;;;3.20;2.90;;;23.00;66.60;;;;;;4994576;28;20201;-70
2022/06/16 07:22:21;;;;;;;3.35;3.05;;;23.00;67.00;;;;;;4994309;28;20220;-69
2022/06/16 07:24:48;;;;;;;3.20;2.90;;;23.00;67.10;;;;;;4994654;28;20192;-68
2022/06/16 07:27:18;;;;;;;3.50;3.30;;;23.00;66.80;;;;;;4994152;28;20185;-68
2022/06/16 07:29:44;;;;;;;2.90;2.70;;;23.00;66.80;;;;;;4995527;28;20223;-69
2022/06/16 07:32:10;;;;;;;3.00;2.80;;;23.00;67.00;;;;;;5001467;28;20648;-69
2022/06/16 07:34:35;;;;;;;3.15;2.88;;;23.10;67.00;;;;;;4994725;28;20228;-69
2022/06/16 07:37:02;;;;;;;3.20;3.00;;;23.10;67.10;;;;;;4986932;28;20188;-69
2022/06/16 07:39:28;;;;;;;3.80;2.92;;;23.10;67.20;;;;;;4975912;28;20244;-69
2022/06/16 07:41:54;;;;;;;3.15;2.63;;;23.10;67.90;;;;;;4977911;28;20239;-69
2022/06/16 07:44:21;;;;;;;3.35;3.15;;;23.10;67.20;;;;;;4993530;28;20276;-69
2022/06/16 07:46:47;;;;;;;3.28;2.97;;;23.10;67.20;;;;;;4996841;28;20542;-69
2022/06/16 07:49:22;;;;;;;3.28;3.08;;;23.10;67.10;;;;;;4976662;28;20214;-69
2022/06/16 07:51:50;;;;;;;3.40;3.10;;;23.10;67.00;;;;;;4975022;28;20252;-69
2022/06/16 07:54:17;;;;;;;2.95;2.75;;;23.10;67.20;;;;;;4958334;28;20700;-69
2022/06/16 07:56:45;;;;;;;3.20;2.90;;;23.10;67.00;;;;;;4973943;28;20220;-69
2022/06/16 07:59:13;;;;;;;2.88;2.67;;;23.20;67.00;;;;;;4974707;28;20293;-68
2022/06/16 08:01:38;;;;;;;3.00;2.80;;;23.10;67.10;;;;;;4974651;28;20189;-69
2022/06/16 08:04:05;;;;;;;3.20;2.90;;;23.10;67.00;;;;;;4974613;28;20261;-69
2022/06/16 08:06:35;;;;;;;3.33;3.10;;;23.10;66.90;;;;;;4968428;28;20200;-69
2022/06/16 08:09:03;;;;;;;7.53;3.35;;;23.10;66.60;;;;;;4994131;28;20212;-70
2022/06/16 08:14:13;;;;;;;11.25;3.03;;;23.30;66.70;;;;;;4992640;28;20262;-70
2022/06/16 08:16:39;;;;;;;4.45;2.97;;;23.30;66.90;;;;;;4998092;28;20264;-69
2022/06/16 08:19:05;;;;;;;10.10;3.40;;;23.40;68.30;;;;;;5014201;28;20200;-69
2022/06/16 08:21:31;;;;;;;5.13;3.30;;;23.40;67.90;;;;;;4996847;28;20180;-69
2022/06/16 08:23:57;;;;;;;3.80;3.40;;;23.40;68.00;;;;;;4996918;28;20234;-69
2022/06/16 08:26:24;;;;;;;8.75;2.90;;;23.50;68.50;;;;;;4997639;28;20192;-69
2022/06/16 08:28:53;;;;;;;5.68;3.00;;;23.60;68.80;;;;;;5013204;28;20211;-69
2022/06/16 08:31:22;;;;;;;7.60;3.08;;;23.60;68.80;;;;;;5012859;28;20180;-69
2022/06/16 08:33:50;;;;;;;9.68;3.15;;;23.60;68.80;;;;;;4996342;28;20216;-69
2022/06/16 08:36:16;;;;;;;5.97;3.00;;;23.60;69.30;;;;;;4996479;28;20180;-69
2022/06/16 08:38:42;;;;;;;3.97;3.10;;;23.60;68.80;;;;;;5013664;28;20204;-69
2022/06/16 08:41:25;;;;;;;6.15;3.13;;;23.60;68.70;;;;;;5012795;28;20181;-69
2022/06/16 08:44:41;;;;;;;5.20;3.03;;;23.60;69.20;;;;;;5029187;28;20196;-68
2022/06/16 08:47:20;;;;;;;5.00;2.85;;;23.60;68.90;;;;;;4995467;28;20295;-69
2022/06/16 08:50:23;;;;;;;5.78;2.72;;;23.50;68.70;;;;;;5012314;28;20212;-69
2022/06/16 08:52:57;;;;;;;8.48;3.10;;;23.50;69.00;;;;;;4995971;28;20270;-69
2022/06/16 08:55:48;;;;;;;3.25;2.95;;;23.40;68.80;;;;;;4996034;28;20192;-70
2022/06/16 08:58:19;;;;;;;5.50;3.10;;;23.50;68.70;;;;;;4995758;28;20188;-69
2022/06/16 09:00:54;;;;;;;2.72;2.53;;;23.40;68.60;;;;;;5012870;28;20707;-70
2022/06/16 09:03:24;;;;;;;2.92;2.63;;;23.40;68.60;;;;;;4988331;28;20235;-70
2022/06/16 09:06:14;;;;;;;5.32;3.20;;;23.50;68.70;;;;;;5010488;28;20192;-70
2022/06/16 09:08:58;;;;;;;4.80;2.58;;;23.50;68.60;;;;;;4993032;28;20699;-70
2022/06/16 09:11:47;;;;;;;3.90;2.97;;;23.50;68.40;;;;;;5008190;28;20267;-70
2022/06/16 09:15:14;;;;;;;7.88;3.00;;;23.60;68.50;;;;;;4995638;28;20219;-71
2022/06/16 09:18:23;;;;;;;7.47;3.20;;;23.70;68.90;;;;;;4964477;28;20660;-71
2022/06/16 09:21:01;;;;;;;4.80;3.05;;;23.80;69.00;;;;;;4993887;28;20188;-71
2022/06/16 09:23:45;;;;;;;5.20;2.97;;;23.80;68.90;;;;;;4996864;28;20647;-71
2022/06/16 09:26:10;;;;;;;3.30;3.00;;;23.70;69.20;;;;;;4997635;28;20231;-70
2022/06/16 09:29:07;;;;;;;4.20;2.75;;;23.70;69.40;;;;;;4995206;28;20200;-70
2022/06/16 09:31:47;;;;;;;3.10;2.80;;;23.70;70.00;;;;;;5012380;28;20327;-70
2022/06/16 09:34:34;;;;;;;4.40;2.92;;;23.80;70.10;;;;;;5027761;28;20604;-71
2022/06/16 09:37:10;;;;;;;6.40;2.85;;;23.70;70.10;;;;;;5012197;28;20198;-71
2022/06/16 09:40:13;;;;;;;7.03;2.95;;;23.80;70.40;;;;;;5012463;28;20207;-71
2022/06/16 09:42:51;;;;;;;6.32;3.13;;;23.80;70.40;;;;;;5001856;28;20177;-71
2022/06/16 09:45:28;;;;;;;5.80;3.03;;;23.90;70.10;;;;;;4992150;28;20177;-71
2022/06/16 09:48:07;;;;;;;5.85;3.28;;;23.80;70.00;;;;;;5008314;28;20189;-71
2022/06/16 09:50:48;;;;;;;4.05;2.78;;;23.80;70.20;;;;;;4980708;28;20271;-71
2022/06/16 09:53:19;;;;;;;4.70;2.92;;;23.80;70.80;;;;;;4972478;28;20213;-72
2022/06/16 09:56:05;;;;;;;5.22;2.80;;;23.90;70.10;;;;;;4972878;28;20244;-72
2022/06/16 09:58:47;;;;;;;3.30;2.70;;;23.90;70.60;;;;;;4972291;28;20300;-71
2022/06/16 10:01:18;;;;;;;3.70;2.90;;;23.90;70.70;;;;;;4972780;28;20293;-71
2022/06/16 10:03:57;;;;;;;3.33;2.45;;;23.90;70.30;;;;;;4973750;28;20182;-71
2022/06/16 10:06:55;;;;;;;3.47;2.83;;;23.90;71.00;;;;;;4972223;28;20224;-71
2022/06/16 10:09:29;;;;;;;7.15;3.25;;;24.00;70.80;;;;;;4972499;28;20312;-71
2022/06/16 10:12:23;;;;;;;8.40;2.80;;;23.90;71.20;;;;;;4977865;28;20548;-71
2022/06/16 10:15:12;;;;;;;4.38;2.58;;;23.90;70.90;;;;;;4995852;28;20244;-72
2022/06/16 10:17:42;;;;;;;9.50;3.22;;;24.00;70.10;;;;;;4975823;28;20197;-73
2022/06/16 10:20:10;;;;;;;9.68;2.85;;;24.00;70.60;;;;;;4982431;28;20208;-72
2022/06/16 10:22:42;;;;;;;6.75;3.00;;;24.00;70.80;;;;;;4998521;28;20220;-72
2022/06/16 10:25:22;;;;;;;6.70;2.70;;;24.00;70.90;;;;;;4996096;28;20177;-72
2022/06/16 10:27:55;;;;;;;4.60;2.88;;;24.00;71.10;;;;;;5009567;28;20196;-71
2022/06/16 10:30:25;;;;;;;5.07;3.03;;;24.00;70.90;;;;;;5015052;28;20211;-71
2022/06/16 10:33:21;;;;;;;4.05;2.88;;;24.00;71.10;;;;;;5015015;28;20188;-71
2022/06/16 10:36:14;;;;;;;3.85;2.70;;;24.00;71.00;;;;;;5013263;28;20285;-72
2022/06/16 10:39:06;;;;;;;7.22;2.97;;;24.00;70.40;;;;;;5013438;28;20204;-71
2022/06/16 10:41:54;;;;;;;5.63;3.33;;;24.00;70.60;;;;;;5015676;28;20199;-72
2022/06/16 10:44:26;;;;;;;7.32;2.88;;;24.00;71.10;;;;;;5013648;28;20200;-72
2022/06/16 10:47:00;;;;;;;5.32;2.80;;;24.00;71.20;;;;;;5013496;28;20180;-71
2022/06/16 10:49:34;;;;;;;11.95;3.53;;;24.00;71.00;;;;;;5013734;28;20204;-72
2022/06/16 10:52:14;;;;;;;4.13;3.10;;;24.00;70.90;;;;;;5005978;28;20188;-71
2022/06/16 10:55:05;;;;;;;3.55;2.65;;;24.00;71.20;;;;;;5007254;28;20236;-72
2022/06/16 10:57:41;;;;;;;4.18;2.78;;;24.00;70.40;;;;;;4977311;28;20188;-72
2022/06/16 11:00:21;;;;;;;6.40;3.10;;;24.00;71.00;;;;;;4994023;28;20275;-71
2022/06/16 11:03:11;;;;;;;4.47;2.90;;;24.00;71.20;;;;;;5018431;28;20181;-72
2022/06/16 11:05:57;;;;;;;4.30;3.03;;;24.00;71.30;;;;;;5015412;28;20266;-72
2022/06/16 11:08:33;;;;;;;4.32;2.97;;;24.00;71.30;;;;;;5013576;28;20183;-71
2022/06/16 11:11:01;;;;;;;6.05;3.22;;;24.00;70.90;;;;;;4998172;28;20699;-71
2022/06/16 11:13:38;;;;;;;7.45;3.20;;;24.00;71.00;;;;;;4976112;28;20248;-71
2022/06/16 11:16:11;;;;;;;3.83;3.08;;;24.00;71.30;;;;;;4990591;28;20180;-72
2022/06/16 11:18:39;;;;;;;3.13;2.88;;;24.00;71.30;;;;;;5007067;28;20228;-71
2022/06/16 11:21:22;;;;;;;5.78;3.03;;;24.00;71.30;;;;;;5008864;28;20188;-71
2022/06/16 11:23:53;;;;;;;3.65;3.15;;;24.10;71.40;;;;;;5010377;28;20284;-70
2022/06/16 11:26:36;;;;;;;4.90;2.97;;;24.00;71.70;;;;;;5012992;28;20191;-71
2022/06/16 11:29:11;;;;;;;4.30;3.20;;;24.00;71.30;;;;;;5011862;28;20212;-71
2022/06/16 11:31:48;;;;;;;3.47;2.70;;;24.00;71.60;;;;;;4996104;28;20183;-72
2022/06/16 11:34:23;;;;;;;3.95;3.08;;;24.00;71.30;;;;;;4951629;28;1200527;-71
2022/06/16 11:37:07;;;;;;;3.95;2.88;;;24.00;71.30;;;;;;4993890;28;20181;-70
2022/06/16 11:40:05;;;;;;;3.92;3.10;;;24.00;71.00;;;;;;4994614;28;20227;-70
2022/06/16 11:42:55;;;;;;;5.63;3.30;;;24.00;71.60;;;;;;4993613;28;20200;-71
2022/06/16 11:45:36;;;;;;;3.35;2.78;;;24.00;71.70;;;;;;4994167;28;20228;-71
2022/06/16 11:48:26;;;;;;;3.60;2.85;;;24.00;71.60;;;;;;4993933;28;20177;-71
2022/06/16 11:51:29;;;;;;;3.50;2.70;;;24.00;71.30;;;;;;4994626;28;20264;-72
2022/06/16 11:54:28;;;;;;;3.78;3.17;;;24.00;71.50;;;;;;5010704;28;20684;-71
2022/06/16 11:57:10;;;;;;;3.10;2.85;;;24.00;71.30;;;;;;4993630;28;20173;-71
2022/06/16 12:00:21;;;;;;;3.63;3.17;;;24.10;71.80;;;;;;4994839;28;20549;-72
2022/06/16 12:03:28;;;;;;;3.65;3.08;;;24.10;71.40;;;;;;5003872;28;20714;-72
2022/06/16 12:06:18;;;;;;;4.00;3.17;;;24.00;71.70;;;;;;4996601;28;20184;-71
2022/06/16 12:09:09;;;;;;;4.43;3.50;;;24.10;72.00;;;;;;4996165;28;20262;-72
2022/06/16 12:12:01;;;;;;;10.57;3.08;;;24.10;71.40;;;;;;5011405;28;20187;-71
2022/06/16 12:14:45;;;;;;;4.72;3.00;;;24.10;71.40;;;;;;4992728;28;20209;-71
2022/06/16 12:17:16;;;;;;;4.65;3.28;;;24.10;71.40;;;;;;4976376;28;20189;-71
2022/06/16 12:20:25;;;;;;;7.35;3.40;;;24.10;71.40;;;;;;4994333;28;20263;-71
2022/06/16 12:23:08;;;;;;;5.50;3.13;;;24.10;71.50;;;;;;4993266;28;20181;-71
2022/06/16 12:26:01;;;;;;;4.60;2.83;;;24.10;71.40;;;;;;4993206;28;20185;-70
2022/06/16 12:28:45;;;;;;;5.68;2.95;;;24.10;71.00;;;;;;4992641;28;20227;-72
2022/06/16 12:31:24;;;;;;;3.25;3.00;;;24.10;71.40;;;;;;4992811;28;20276;-71
2022/06/16 12:34:02;;;;;;;4.35;3.03;;;24.10;71.70;;;;;;5000570;28;20248;-70
2022/06/16 12:36:41;;;;;;;3.90;2.90;;;24.10;72.20;;;;;;4989654;28;20213;-71
2022/06/16 12:39:28;;;;;;;3.80;3.28;;;24.10;72.40;;;;;;4978163;28;20236;-71
2022/06/16 12:42:03;;;;;;;3.78;3.20;;;24.10;72.10;;;;;;4993223;28;20204;-70
2022/06/16 12:45:01;;;;;;;4.00;3.20;;;24.10;71.80;;;;;;4987478;28;20180;-71
2022/06/16 12:47:37;;;;;;;3.65;3.15;;;24.10;72.00;;;;;;4992287;28;20181;-72
2022/06/16 12:50:12;;;;;;;3.95;3.03;;;24.10;72.40;;;;;;4985500;28;20216;-72
2022/06/16 12:52:58;;;;;;;3.50;2.85;;;24.10;72.60;;;;;;4973127;28;20221;-71
2022/06/16 12:55:37;;;;;;;3.05;2.85;;;24.10;72.50;;;;;;5005344;28;20212;-71
2022/06/16 12:58:36;;;;;;;3.42;3.13;;;24.10;72.70;;;;;;4991940;28;20199;-71
2022/06/16 13:01:08;;;;;;;3.28;2.97;;;24.10;72.40;;;;;;4995841;28;20183;-71
2022/06/16 13:03:47;;;;;;;3.35;2.88;;;24.10;72.00;;;;;;4998665;28;20184;-71
2022/06/16 13:06:16;;;;;;;3.67;2.85;;;24.10;72.80;;;;;;4974083;28;20180;-71
2022/06/16 13:08:55;;;;;;;8.68;3.20;;;24.10;72.30;;;;;;4972203;28;20275;-71
2022/06/16 13:11:29;;;;;;;3.42;3.13;;;24.10;72.50;;;;;;4976564;28;20177;-72
2022/06/16 13:14:06;;;;;;;4.18;2.92;;;24.10;72.60;;;;;;4972581;28;20215;-71
2022/06/16 13:16:40;;;;;;;3.47;3.00;;;24.10;73.10;;;;;;4974233;28;20169;-71
2022/06/16 13:19:24;;;;;;;3.10;2.78;;;24.10;72.50;;;;;;4974486;28;20689;-71
2022/06/16 13:21:56;;;;;;;4.47;2.85;;;24.10;72.80;;;;;;4976098;28;20571;-72
2022/06/16 13:24:38;;;;;;;6.57;3.47;;;24.10;72.30;;;;;;4984857;28;20181;-72
2022/06/16 13:27:27;;;;;;;3.17;2.88;;;24.10;72.00;;;;;;4988242;28;20189;-71
2022/06/16 13:30:05;;;;;;;4.43;2.97;;;24.10;72.40;;;;;;4982818;28;20205;-71
2022/06/16 13:33:01;;;;;;;4.65;3.17;;;24.10;72.90;;;;;;4998390;28;20200;-71
2022/06/16 13:35:38;;;;;;;9.75;3.70;;;24.10;72.90;;;;;;4972630;28;20194;-71
2022/06/16 13:38:04;;;;;;;12.30;3.65;;;24.10;72.00;;;;;;4980450;28;20216;-72
2022/06/16 13:40:43;;;;;;;15.05;4.10;;;24.10;72.00;;;;;;4974274;28;20217;-72
2022/06/16 13:43:16;;;;;;;15.38;3.75;;;24.10;71.90;;;;;;4992997;28;20173;-72
2022/06/16 13:46:03;;;;;;;13.32;4.38;;;24.10;72.30;;;;;;4991957;28;20205;-72
2022/06/16 13:48:51;;;;;;;13.10;3.85;;;24.10;72.90;;;;;;4991749;28;20188;-71
2022/06/16 13:51:41;;;;;;;20.45;3.80;;;24.10;72.80;;;;;;4991925;28;20173;-71
2022/06/16 13:54:11;;;;;;;11.13;3.60;;;24.10;72.60;;;;;;4992997;28;20262;-71
2022/06/16 13:56:42;;;;;;;10.68;3.72;;;24.00;72.10;;;;;;4989894;28;20212;-71
2022/06/16 13:59:28;;;;;;;9.85;3.70;;;24.00;72.60;;;;;;4975023;28;20204;-71